Aeroporto :
LOGIN :

Iscrizione | Disclaimer

   EN    FR    IT 

 










Sommario :    VFR   VFR Marginale   IFR   IFR Intensivo   IFR Molto Intensivo
Visibilità : 
Base nubi : 
>= 8 km
>= 3000ft
5 / 8 km
1000 / 3000 ft
1500m / 5 km
500 / 1000 ft
800 / 1500m
200 / 500 ft
< 800m
< 200 ft
Simboli :   Temporali  Nebbia  Neve Forte  Precipitazioni Forti  Vento > 20 kt
SIGMETs :   Varie  Temporali  Ghiacco  Turbolenza  Onda orograficha  Ceneri Vulcaniche






- Altitudine del aeroporto : 359 ft
- Codice IATA : BVA


LFOB - Beauvais

ULTIMO METAR :
  • 182030Z AUTO 32006KT CAVOK M01/M02 Q1031 NOSIG

METARs OBSOLETI :
  • 182000Z AUTO 31005KT CAVOK 01/M01 Q1031 NOSIG
  • 181930Z AUTO 34004KT CAVOK 01/00 Q1030 NOSIG
  • 181900Z AUTO 34006KT CAVOK 01/M00 Q1030 NOSIG
  • 181830Z AUTO 36003KT CAVOK 02/00 Q1030 NOSIG
  • 181800Z AUTO 02004KT 300V040 CAVOK 03/01 Q1030 NOSIG

TAF TAF LFOB
Valido dal 18 a 18 ore il 19 a 18 ore UTC


181700Z 1818/1918 VRB02KT 9999 SCT020
BECMG 1908/1910 02010KT
TEMPO 1911/1915 02015G25KT 3000 SHRAGS BKN020CB
ATIS : +33 3 44 11 49 28



MetMap, La meteo Aeronautica in un colpo d'occhio ! - Copyright ORBIFLY Dicembre 2007 - Disclaimer

ORBIFLY MET'MAP TEAM :

Programmazione e sviluppo : Alexandra Zaïnal
Concezione : Baudouin d'Aumeries
Aiuto per la programmazione : Marc-Olivier Méhu
Supporto tecnico e logistico : Manuel Goepfert
Aiuto per la traduzione : Arnaldo La Scala

Contatto : metmap@orbifly.com




FONTI E CREDITI :

   NOAA